Aviation Digital Data Service (ADDS)

Output produced by METARs form (1903 UTC 18 June 2019)
found at http://www.aviationweather.gov/metar/data/
 
ZBHH 181800Z 03002MPS CAVOK 19/10 Q1010 NOSIG
TAF ZBHH 181510Z 1818/1918 04004MPS CAVOK TX31/1907Z TN15/1821Z
       
ZGGG 181830Z VRB01MPS 9999 BKN015 BKN033 27/25 Q1007 NOSIG
TAF ZGGG 181507Z 1818/1918 15003MPS 8000 SCT040 TX32/1907Z TN26/1822Z 
     TEMPO 1906/1912 2500 TSRA SCT011 SCT030CB BKN033
       
ZGSZ 181800Z 16004MPS 9999 FEW030 28/26 Q1007 NOSIG
TAF ZGSZ 181506Z 1818/1918 16004MPS 8000 SCT020 TX32/1906Z TN28/1822Z 
     TEMPO 1902/1908 SHRA SCT015 FEW020CB BKN030
       
ZBTJ 181830Z 09005MPS 060V120 2500 BR NSC 23/20 Q1005 NOSIG
TAF ZBTJ 181504Z 1818/1918 15004MPS 5000 HZ NSC TX30/1907Z TN20/1820Z
       
ZBAA 181830Z 09002MPS 030V160 CAVOK 23/16 Q1006 NOSIG
TAF ZBAA 181530Z 1818/1918 17004MPS 7000 NSC TX33/1907Z TN19/1821Z 
     TEMPO 1905/1911 -TSRA FEW040CB
       
ZSFZ 181800Z 24004MPS CAVOK 29/24 Q1007 NOSIG
TAF ZSFZ 181516Z 1818/1918 22005MPS 7000 FEW015 TX31/1906Z TN24/1821Z 
     TEMPO 1819/1823 2500 BR
       
ZYCC 181800Z VRB01MPS 9999 SCT030 15/09 Q1006 NOSIG
TAF ZYCC 181305Z 1818/1918 04004MPS 8000 FEW026 TX28/1905Z TN14/1822Z 
     TEMPO 1904/1910 2000 TSRA BR FEW010 FEW020CB BKN020
       
ZWWW 181830Z 20002MPS 170V240 CAVOK 24/08 Q1008 NOSIG
TAF ZWWW 181504Z 1818/1918 16004MPS CAVOK TX33/1909Z TN22/1822Z 
     BECMG 1903/1904 29004G09MPS 9999 FEW040CB 
     BECMG 1914/1915 16004MPS CAVOK
       
ZSAM 181800Z 23003MPS 9999 SCT016 28/26 Q1008 NOSIG
TAF ZSAM 181511Z 1818/1918 20004G09MPS 6000 FEW017 BKN030 TX33/1906Z TN26/1821Z 
     TEMPO 1906/1912 SCT023 FEW023CB
       
ZSSS 181830Z 30002MPS 4000 BR SCT006 OVC040 23/23 Q1005 NOSIG
TAF ZSSS 181519Z 1818/1918 30004MPS 5000 BR SCT006 TX27/1906Z TN21/1819Z 
     BECMG 1822/1824 36005MPS 
     BECMG 1903/1905 07004MPS
       
ZGHA 181800Z VRB01MPS 6000 NSC 25/23 Q1005 NOSIG
TAF ZGHA 181445Z 1818/1918 35003MPS 5000 BR NSC TX33/1907Z TN24/1822Z
       
ZUCK 181800Z 01003MPS 9999 FEW050 24/22 Q1004 NOSIG
TAF ZUCK 181501Z 1818/1918 03003MPS 5000 BR SCT016 SCT050 TX29/1908Z TN22/1821Z 
     TEMPO 1820/1824 -SHRA
       
ZWSH 181800Z AUTO 32010MPS 9000 // ////// 18/08 Q1014
TAF ZWSH 181508Z 1818/1918 32004G09MPS 9999 SCT040 TX29/1909Z TN19/1900Z 
     BECMG 1904/1905 12004MPS
       
ZGKL 181800Z 00000MPS 6000 SCT033 BKN060 25/25 Q1006 NOSIG
TAF ZGKL 181508Z 1818/1918 17003MPS 9999 SCT050 TX33/1908Z TN24/1823Z 
     TEMPO 1905/1911 -TSRA FEW036CB SCT036
       
ZSNB 181800Z 34003MPS 9999 BKN026 24/23 Q1005 NOSIG
TAF ZSNB 181352Z 1818/1918 36003MPS 3500 -RA BR FEW007 BKN020 TX27/1906Z
TN22/1821Z
       
ZSQD 181800Z 19005MPS 9999 BKN011 21/19 Q1006 NOSIG
TAF ZSQD 181521Z 1818/1918 18006MPS 9999 BKN020 TX29/1906Z TN21/1821Z
       
ZSNJ 181800Z 26001MPS 2000 BR OVC026 23/23 Q1006 NOSIG
TAF ZSNJ 181502Z 1818/1918 28003MPS 2500 BR NSC TX29/1906Z TN21/1822Z 
     BECMG 1821/1822 1000 
     BECMG 1900/1901 3000
       
ZSOF 181800Z 00000MPS 4500 BR NSC 22/22 Q1005 NOSIG
TAF ZSOF 181502Z 1818/1918 15003MPS 3000 BR BKN020 TX26/1907Z TN21/1822Z 
     BECMG 1906/1907 2700 -RA BR 
     BECMG 1907/1908 3000 -RA BR BKN010 
     BECMG 1910/1911 BKN007
       
ZJHK 181800Z 11003MPS 9999 FEW013 FEW030CB SCT046 27/26 Q1007 NOSIG
TAF ZJHK 181501Z 1818/1918 18003MPS 9999 SCT020 TX35/1907Z TN26/1821Z 
     TEMPO 1906/1912 SCT020 FEW026CB
       
ZJSY 181800Z 10003MPS CAVOK 28/26 Q1007 NOSIG
TAF ZJSY 181501Z 1818/1918 09004MPS 9999 FEW020 TX33/1906Z TN28/1821Z 
     TEMPO 1818/1824 SCT018 FEW025CB 
     TEMPO 1905/1910 SCT018 FEW025CB
       
ZSPD 181830Z 29003MPS 2500 -RA BR BKN004 OVC033 23/23 Q1005 NOSIG
TAF ZSPD 181525Z 1818/1918 35004MPS 3000 BR BKN010 OVC040 TX26/1906Z TN20/1821Z 
     TEMPO 1820/1824 1000 BR BKN004 OVC040 
     BECMG 1903/1905 09004MPS
       
ZUUU 181800Z 35002MPS 310V050 9999 FEW020 BKN033 21/21 Q1006 NOSIG
TAF ZUUU 181414Z 1818/1918 02003MPS 5000 BR SCT040 TX28/1908Z TN21/1821Z 
     TEMPO 1910/1916 -SHRA
       
ZYHB 181800Z 21002MPS CAVOK 15/09 Q1004 NOSIG
TAF ZYHB 181307Z 1818/1918 21005G11MPS 6000 SCT030 TX30/1906Z TN15/1819Z
       
ZYTX 181830Z 13002MPS 100V160 CAVOK 15/15 Q1007 NOSIG
TAF ZYTX 181313Z 1818/1918 14003MPS CAVOK TX28/1906Z TN15/1821Z
       
ZHHH 181800Z 22002MPS 7000 FEW010 BKN040 25/25 Q1005 NOSIG
TAF ZHHH 181506Z 1818/1918 23003MPS 4000 BR SCT011 OVC040 TX31/1907Z TN22/1822Z 
     BECMG 1912/1913 3000 -RA BR
       
ZPPP 181800Z 21005MPS 9999 SCT016 OVC033 19/17 Q1017 NOSIG
TAF ZPPP 181309Z 1818/1918 22004MPS 9999 SCT026 BKN040 TX28/1908Z TN17/1823Z
       
ZBYN 181830Z 00000MPS CAVOK 24/15 Q1007 NOSIG
TAF ZBYN 181516Z 1818/1918 09003MPS 6000 NSC TX33/1907Z TN19/1822Z
       
ZGNN 181800Z 11002MPS 9999 FEW011 27/25 Q1006 NOSIG
TAF ZGNN 181505Z 1818/1918 15003MPS 7000 SCT030 TX34/1907Z TN26/1822Z 
     TEMPO 1905/1911 FEW026CB BKN030
       
ZLXY 181800Z 23001MPS CAVOK 25/19 Q1005 NOSIG
TAF ZLXY 181508Z 1818/1918 06003MPS 5000 HZ NSC TX30/1903Z TN22/1821Z 
     BECMG 1906/1907 2800 -RA BR 
     BECMG 1908/1909 3000
       
ZSHC 181830Z VRB01MPS 6000 FEW007 BKN020 24/23 Q1006 NOSIG
TAF ZSHC 181512Z 1818/1918 24003MPS 3000 BR BKN020 TX29/1906Z TN22/1821Z
       
ZHCC 181800Z 19002MPS 140V280 CAVOK 26/20 Q1005 NOSIG
TAF ZHCC 181506Z 1818/1918 15003MPS 5000 HZ NSC TX34/1907Z TN25/1822Z
       
TAF ZSJN 181515Z 1818/1918 24003MPS 5000 HZ NSC TX38/06Z TN25/21Z
       
ZBSJ 181800Z VRB01MPS 8000 NSC 25/20 Q1003 NOSIG
TAF ZBSJ 181410Z 1818/1918 03004MPS 4000 HZ NSC TX34/1907Z TN21/1821Z
       
ZLLL 181800Z 16001MPS 8000 SCT023 BKN046 12/12 Q1015 NOSIG
TAF ZLLL 181501Z 1818/1918 33003MPS 9999 BKN040 TX21/1909Z TN11/1822Z 
     BECMG 1907/1908 4000 -RA
       
ZYTL 181830Z 10004MPS 3000 BR BKN006 SCT030 19/17 Q1007 NOSIG
TAF ZYTL 181510Z 1818/1918 11004MPS 3000 BR SCT006 BKN030 TX27/1906Z TN18/1820Z 
     BECMG 1900/1901 6000 SCT026